createdAt,value
2023-05-09T06:55:25.201Z,25.13
2023-05-09T06:56:25.780Z,25.17
2023-05-09T06:57:25.526Z,25.11
2023-05-09T06:58:25.758Z,25.02
2023-05-09T06:59:25.759Z,24.86
2023-05-09T07:00:24.740Z,24.71
2023-05-09T07:01:25.727Z,24.57
2023-05-09T07:02:25.772Z,24.53
2023-05-09T07:03:25.756Z,24.47
2023-05-09T07:04:24.728Z,24.43
2023-05-09T07:05:25.893Z,24.40
2023-05-09T07:06:24.714Z,24.43
2023-05-09T07:07:24.747Z,24.43
2023-05-09T07:08:24.668Z,24.46
2023-05-09T07:09:24.683Z,24.53
2023-05-09T07:10:26.066Z,24.63
2023-05-09T07:11:24.790Z,24.65
2023-05-09T07:12:24.697Z,24.67
2023-05-09T07:13:25.691Z,24.69
2023-05-09T07:14:24.668Z,24.72
2023-05-09T07:15:36.685Z,24.86
2023-05-09T07:16:25.697Z,24.97
2023-05-09T07:17:25.748Z,25.06
2023-05-09T07:18:25.628Z,25.05
2023-05-09T07:19:25.656Z,25.00
2023-05-09T07:20:24.625Z,24.96
2023-05-09T07:21:25.587Z,24.98
2023-05-09T07:22:25.595Z,24.99
2023-05-09T07:23:24.571Z,25.04
2023-05-09T07:24:24.578Z,25.02
2023-05-09T07:25:24.567Z,24.97
2023-05-09T07:26:25.587Z,24.96
2023-05-09T07:27:25.688Z,24.99
2023-05-09T07:28:24.554Z,25.05
2023-05-09T07:29:24.557Z,25.10
2023-05-09T07:30:25.527Z,24.99
2023-05-09T07:31:25.628Z,24.78
2023-05-09T07:32:24.557Z,24.75
2023-05-09T07:33:26.548Z,24.84
2023-05-09T07:34:24.532Z,24.91
2023-05-09T07:35:25.498Z,25.01
2023-05-09T07:36:24.530Z,25.04
2023-05-09T07:37:25.524Z,25.04
2023-05-09T07:38:25.479Z,25.04
2023-05-09T07:39:25.483Z,25.02
2023-05-09T07:40:25.516Z,25.02
2023-05-09T07:41:25.474Z,25.06
2023-05-09T07:42:25.502Z,25.15
2023-05-09T07:43:24.679Z,25.18
2023-05-09T07:44:24.580Z,25.18
2023-05-09T07:45:25.768Z,25.06
2023-05-09T07:46:25.673Z,24.99
2023-05-09T07:47:25.740Z,24.92
2023-05-09T07:48:24.718Z,24.89
2023-05-09T07:49:25.753Z,24.92
2023-05-09T07:50:26.062Z,24.91
2023-05-09T07:51:25.775Z,25.01
2023-05-09T07:52:25.805Z,25.00
2023-05-09T07:53:24.816Z,24.93
2023-05-09T07:54:25.829Z,24.95
2023-05-09T07:55:24.863Z,24.95
2023-05-09T07:56:24.877Z,24.98
2023-05-09T07:57:24.997Z,24.99
2023-05-09T07:58:24.995Z,25.02
2023-05-09T07:59:25.140Z,24.92
2023-05-09T08:00:25.017Z,24.89
2023-05-09T08:01:25.001Z,24.82
2023-05-09T08:02:25.095Z,24.73
2023-05-09T08:03:25.096Z,24.78
2023-05-09T08:04:26.081Z,24.77
2023-05-09T08:05:26.066Z,24.80
2023-05-09T08:06:25.072Z,24.79
2023-05-09T08:07:26.095Z,24.84
2023-05-09T08:08:25.109Z,24.91
2023-05-09T08:09:26.183Z,25.02
2023-05-09T08:10:26.211Z,25.13
2023-05-09T08:11:25.221Z,25.23
2023-05-09T08:12:26.269Z,25.29
2023-05-09T08:13:25.328Z,25.30
2023-05-09T08:14:26.345Z,25.27
2023-05-09T08:15:26.514Z,25.23
2023-05-09T08:16:25.464Z,25.18
2023-05-09T08:17:26.513Z,25.15
2023-05-09T08:18:26.515Z,25.22
2023-05-09T08:19:25.546Z,25.30
2023-05-09T08:20:26.603Z,25.39
2023-05-09T08:21:26.649Z,25.43
2023-05-09T08:22:25.677Z,25.52
2023-05-09T08:23:25.704Z,25.60
2023-05-09T08:24:26.721Z,25.67
2023-05-09T08:25:25.703Z,25.73
2023-05-09T08:26:26.758Z,25.68
2023-05-09T08:27:25.729Z,25.55
2023-05-09T08:28:26.754Z,25.49
2023-05-09T08:29:25.782Z,25.47
2023-05-09T08:30:26.839Z,25.45
2023-05-09T08:31:26.015Z,25.49
2023-05-09T08:32:25.959Z,25.51
2023-05-09T08:33:26.990Z,25.55
2023-05-09T08:34:26.037Z,25.56
2023-05-09T08:35:27.090Z,25.50
2023-05-09T08:36:27.141Z,25.43
2023-05-09T08:37:26.203Z,25.40
2023-05-09T08:38:27.216Z,25.43
2023-05-09T08:39:27.249Z,25.49
2023-05-09T08:40:26.273Z,25.55
2023-05-09T08:41:26.620Z,25.66
2023-05-09T08:42:27.337Z,25.74
2023-05-09T08:43:26.335Z,25.89
2023-05-09T08:44:26.348Z,26.05
2023-05-09T08:45:27.590Z,26.15
2023-05-09T08:46:27.579Z,26.28
2023-05-09T08:47:26.400Z,26.43
2023-05-09T08:48:27.410Z,26.48
2023-05-09T08:49:27.459Z,26.45
2023-05-09T08:50:27.501Z,26.26
2023-05-09T08:51:27.513Z,26.27
2023-05-09T08:52:26.511Z,26.22
2023-05-09T08:53:27.528Z,26.30
2023-05-09T08:54:27.536Z,26.34
2023-05-09T08:55:27.609Z,26.36
2023-05-09T08:56:28.584Z,26.43
2023-05-09T08:57:26.659Z,26.52
2023-05-09T08:58:26.672Z,26.58
2023-05-09T08:59:26.669Z,26.64
2023-05-09T09:00:26.678Z,26.61
2023-05-09T09:01:26.747Z,26.59
2023-05-09T09:02:26.873Z,26.50
2023-05-09T09:03:27.758Z,26.43
2023-05-09T09:04:27.883Z,26.40
2023-05-09T09:05:40.670Z,26.29
2023-05-09T09:06:27.834Z,26.13
2023-05-09T09:07:29.355Z,26.03
2023-05-09T09:08:27.847Z,25.92
2023-05-09T09:09:27.835Z,25.93
2023-05-09T09:10:26.819Z,25.95
2023-05-09T09:11:27.812Z,26.00
2023-05-09T09:12:26.786Z,26.09
2023-05-09T09:13:26.842Z,26.11
2023-05-09T09:14:26.777Z,25.96
2023-05-09T09:15:27.781Z,26.02
2023-05-09T09:16:27.922Z,26.18
2023-05-09T09:17:28.257Z,26.33
2023-05-09T09:18:26.886Z,26.40
2023-05-09T09:19:26.758Z,26.40
2023-05-09T09:20:27.748Z,26.34
2023-05-09T09:21:26.732Z,26.42
2023-05-09T09:22:27.737Z,26.48
2023-05-09T09:23:27.755Z,26.60
2023-05-09T09:24:26.725Z,26.70
2023-05-09T09:25:26.737Z,26.75
2023-05-09T09:26:26.739Z,26.76
2023-05-09T09:27:27.693Z,26.73
2023-05-09T09:28:26.702Z,26.61
2023-05-09T09:29:27.685Z,26.60
2023-05-09T09:30:27.694Z,26.59
2023-05-09T09:31:27.726Z,26.52
2023-05-09T09:32:27.710Z,26.53
2023-05-09T09:33:27.649Z,26.55
2023-05-09T09:34:26.798Z,26.60
2023-05-09T09:35:27.652Z,26.61
2023-05-09T09:36:26.639Z,26.58
2023-05-09T09:37:26.621Z,26.51
2023-05-09T09:38:26.625Z,26.59
2023-05-09T09:39:27.626Z,26.69
2023-05-09T09:40:26.657Z,26.80
2023-05-09T09:41:27.622Z,26.72
2023-05-09T09:42:26.617Z,26.76
2023-05-09T09:43:27.598Z,26.83
2023-05-09T09:44:27.577Z,26.94
2023-05-09T09:45:27.601Z,26.98
2023-05-09T09:46:26.677Z,26.97
2023-05-09T09:47:27.591Z,26.97
2023-05-09T09:48:26.572Z,26.90
2023-05-09T09:49:27.565Z,26.84
2023-05-09T09:50:26.735Z,26.86
2023-05-09T09:51:26.570Z,26.93
2023-05-09T09:52:27.636Z,27.03
2023-05-09T09:53:26.668Z,27.10
2023-05-09T09:54:27.757Z,27.18
2023-05-09T09:55:27.743Z,27.25
2023-05-09T09:56:26.716Z,27.31
2023-05-09T09:57:26.717Z,27.35
2023-05-09T09:58:26.739Z,27.38
2023-05-09T09:59:27.757Z,27.43
2023-05-09T10:00:26.787Z,27.45
2023-05-09T10:01:27.862Z,27.49
2023-05-09T10:02:26.903Z,27.50
2023-05-09T10:03:27.951Z,27.52
2023-05-09T10:04:26.964Z,27.52
2023-05-09T10:05:27.031Z,27.53
2023-05-09T10:06:28.103Z,27.54
2023-05-09T10:07:28.132Z,27.55
2023-05-09T10:08:27.171Z,27.57
2023-05-09T10:09:28.224Z,27.58
2023-05-09T10:10:28.287Z,27.59
2023-05-09T10:11:27.353Z,27.60
2023-05-09T10:12:28.395Z,27.60
2023-05-09T10:13:28.485Z,27.62
2023-05-09T10:14:28.504Z,27.62
2023-05-09T10:15:28.736Z,27.63
2023-05-09T10:16:40.135Z,27.64
2023-05-09T10:17:28.720Z,27.64
2023-05-09T10:18:27.957Z,27.66
2023-05-09T10:19:27.688Z,27.68
2023-05-09T10:20:27.659Z,27.68
2023-05-09T10:21:27.664Z,27.69
2023-05-09T10:22:27.779Z,27.70
2023-05-09T10:23:27.645Z,27.73
2023-05-09T10:24:28.666Z,27.74
2023-05-09T10:25:28.643Z,27.76
2023-05-09T10:26:28.646Z,27.78
2023-05-09T10:27:27.620Z,27.65
2023-05-09T10:28:28.591Z,27.51
2023-05-09T10:29:28.594Z,27.43
2023-05-09T10:30:28.792Z,27.36
2023-05-09T10:31:27.673Z,27.30
2023-05-09T10:32:28.632Z,27.25
2023-05-09T10:33:28.565Z,27.21
2023-05-09T10:34:27.573Z,27.18
2023-05-09T10:35:27.576Z,27.14
2023-05-09T10:36:28.565Z,27.13
2023-05-09T10:37:28.546Z,27.10
2023-05-09T10:38:27.665Z,27.08
2023-05-09T10:39:28.543Z,27.06
2023-05-09T10:40:27.546Z,27.06
2023-05-09T10:41:29.157Z,27.09
2023-05-09T10:42:27.523Z,27.20
2023-05-09T10:43:27.514Z,27.24
2023-05-09T10:44:28.507Z,27.17
2023-05-09T10:45:28.543Z,27.13
2023-05-09T10:46:28.673Z,27.09
2023-05-09T10:47:28.514Z,27.07
2023-05-09T10:48:28.476Z,27.05
2023-05-09T10:49:28.472Z,27.03
2023-05-09T10:50:28.460Z,27.02
2023-05-09T10:51:27.483Z,27.03
2023-05-09T10:52:27.438Z,27.14
2023-05-09T10:53:27.450Z,27.25
2023-05-09T10:54:28.602Z,27.33
2023-05-09T10:55:28.436Z,27.39
2023-05-09T10:56:28.420Z,27.44
2023-05-09T10:57:28.403Z,27.48
2023-05-09T10:58:28.409Z,27.50
2023-05-09T10:59:27.409Z,27.53
2023-05-09T11:00:27.380Z,27.59
2023-05-09T11:01:27.414Z,27.60
2023-05-09T11:02:28.456Z,27.62
2023-05-09T11:03:27.466Z,27.64
2023-05-09T11:04:27.368Z,27.67
2023-05-09T11:05:28.370Z,27.68
2023-05-09T11:06:27.358Z,27.70
2023-05-09T11:07:28.340Z,27.74
2023-05-09T11:08:27.342Z,27.77
2023-05-09T11:09:28.586Z,27.79
2023-05-09T11:10:27.449Z,27.82
2023-05-09T11:11:27.331Z,27.84
2023-05-09T11:12:28.310Z,27.87
2023-05-09T11:13:28.340Z,27.89
2023-05-09T11:14:27.293Z,27.91
2023-05-09T11:15:28.299Z,27.92
2023-05-09T11:16:28.334Z,27.94
2023-05-09T11:17:28.356Z,27.96
2023-05-09T11:18:28.271Z,27.99
2023-05-09T11:19:28.258Z,28.02
2023-05-09T11:20:28.264Z,28.03
2023-05-09T11:21:28.248Z,28.04
2023-05-09T11:22:29.167Z,28.07
2023-05-09T11:23:27.330Z,28.09
2023-05-09T11:24:28.375Z,28.12
2023-05-09T11:25:28.423Z,28.14
2023-05-09T11:26:28.573Z,28.16
2023-05-09T11:27:27.498Z,28.18
2023-05-09T11:28:27.527Z,28.20
2023-05-09T11:29:27.592Z,28.23
2023-05-09T11:30:27.612Z,28.26
2023-05-09T11:31:27.677Z,28.29
2023-05-09T11:32:28.698Z,28.31
2023-05-09T11:33:27.706Z,28.32
2023-05-09T11:34:28.753Z,28.36
2023-05-09T11:35:28.816Z,28.38
2023-05-09T11:36:28.172Z,28.40
2023-05-09T11:37:28.848Z,28.40
2023-05-09T11:38:28.869Z,28.39
2023-05-09T11:39:28.901Z,28.43
2023-05-09T11:40:28.967Z,28.46
2023-05-09T11:41:28.178Z,28.46
2023-05-09T11:42:29.165Z,28.43
2023-05-09T11:43:29.037Z,28.42
2023-05-09T11:44:28.112Z,28.44
2023-05-09T11:45:29.123Z,28.42
2023-05-09T11:46:29.216Z,28.49
2023-05-09T11:47:29.267Z,28.54
2023-05-09T11:48:28.195Z,28.57
2023-05-09T11:49:29.216Z,28.55
2023-05-09T11:50:29.275Z,28.56
2023-05-09T11:51:28.263Z,28.55
2023-05-09T11:52:29.280Z,28.59
2023-05-09T11:53:28.314Z,28.58
2023-05-09T11:54:28.335Z,28.57
2023-05-09T11:55:29.391Z,28.55
2023-05-09T11:56:29.432Z,28.53
2023-05-09T11:57:29.429Z,28.53
2023-05-09T11:58:29.606Z,28.58
2023-05-09T11:59:28.495Z,28.63
2023-05-09T12:00:28.551Z,28.62
2023-05-09T12:01:29.570Z,28.70
2023-05-09T12:02:29.670Z,28.74
2023-05-09T12:03:29.735Z,28.71
2023-05-09T12:04:28.634Z,28.66
2023-05-09T12:05:29.641Z,28.71
2023-05-09T12:06:28.670Z,28.71
2023-05-09T12:07:28.666Z,28.66
2023-05-09T12:08:29.693Z,28.75
2023-05-09T12:09:28.698Z,28.83
2023-05-09T12:10:28.696Z,28.85
2023-05-09T12:11:28.714Z,28.82
2023-05-09T12:12:28.720Z,28.78
2023-05-09T12:13:28.768Z,28.76
2023-05-09T12:14:29.911Z,28.79
2023-05-09T12:15:28.817Z,28.83
2023-05-09T12:16:29.825Z,28.85
2023-05-09T12:17:28.869Z,28.84
2023-05-09T12:18:28.857Z,28.87
2023-05-09T12:19:29.889Z,28.90
2023-05-09T12:20:29.891Z,28.95
2023-05-09T12:21:29.931Z,29.01
2023-05-09T12:22:29.902Z,29.00
2023-05-09T12:23:29.926Z,28.99
2023-05-09T12:24:29.926Z,28.99
2023-05-09T12:25:28.953Z,28.99
2023-05-09T12:26:28.973Z,29.01
2023-05-09T12:27:29.112Z,29.03
2023-05-09T12:28:28.971Z,29.03
2023-05-09T12:29:29.993Z,29.03
2023-05-09T12:30:30.129Z,29.06
2023-05-09T12:31:30.091Z,29.05
2023-05-09T12:32:30.111Z,29.04
2023-05-09T12:33:30.147Z,29.07
2023-05-09T12:34:29.211Z,29.10
2023-05-09T12:35:29.222Z,29.12
2023-05-09T12:36:29.325Z,29.14
2023-05-09T12:37:30.266Z,29.15
2023-05-09T12:38:30.265Z,29.15
2023-05-09T12:39:29.298Z,29.18
2023-05-09T12:40:29.331Z,29.07
2023-05-09T12:41:39.025Z,29.03
2023-05-09T12:42:30.337Z,29.05
2023-05-09T12:43:29.329Z,29.12
2023-05-09T12:44:29.604Z,29.15
2023-05-09T12:45:29.327Z,29.17
2023-05-09T12:46:29.511Z,29.19
2023-05-09T12:47:29.417Z,29.19
2023-05-09T12:48:30.309Z,29.22
2023-05-09T12:49:30.298Z,29.25
2023-05-09T12:50:30.297Z,29.29
2023-05-09T12:51:29.280Z,29.34
2023-05-09T12:52:29.282Z,29.37
2023-05-09T12:53:30.273Z,29.41
2023-05-09T12:54:29.267Z,29.46
2023-05-09T12:55:30.282Z,29.48
2023-05-09T12:56:30.300Z,29.49
2023-05-09T12:57:30.860Z,29.52
2023-05-09T12:58:30.246Z,29.61
2023-05-09T12:59:30.271Z,29.65
2023-05-09T13:00:30.253Z,29.66
2023-05-09T13:01:30.375Z,29.70
2023-05-09T13:02:29.554Z,29.73
2023-05-09T13:03:30.388Z,29.73
2023-05-09T13:04:30.472Z,29.73
2023-05-09T13:05:30.467Z,29.79
2023-05-09T13:06:30.516Z,29.83
2023-05-09T13:07:30.589Z,29.81
2023-05-09T13:08:29.632Z,29.78
2023-05-09T13:09:30.637Z,29.79
2023-05-09T13:10:29.676Z,29.84
2023-05-09T13:11:30.726Z,29.85
2023-05-09T13:12:30.777Z,29.87
2023-05-09T13:13:30.802Z,29.92
2023-05-09T13:14:30.907Z,29.95
2023-05-09T13:15:30.936Z,29.96
2023-05-09T13:16:31.023Z,30.00
2023-05-09T13:17:31.056Z,30.04
2023-05-09T13:18:31.330Z,30.05
2023-05-09T13:19:31.116Z,30.07
2023-05-09T13:20:30.166Z,30.13
2023-05-09T13:21:30.198Z,30.16
2023-05-09T13:22:31.273Z,30.18
2023-05-09T13:23:30.286Z,30.19
2023-05-09T13:24:30.339Z,30.17
2023-05-09T13:25:31.386Z,30.21
2023-05-09T13:26:30.478Z,30.25
2023-05-09T13:27:31.477Z,30.23
2023-05-09T13:28:31.468Z,30.26
2023-05-09T13:29:31.478Z,30.30
2023-05-09T13:30:30.553Z,30.31
2023-05-09T13:31:31.570Z,30.31
2023-05-09T13:32:30.654Z,30.28
2023-05-09T13:33:31.669Z,30.31
2023-05-09T13:34:30.744Z,30.25
2023-05-09T13:35:31.659Z,30.29
2023-05-09T13:36:31.723Z,30.29
2023-05-09T13:37:30.723Z,30.28
2023-05-09T13:38:31.780Z,30.22
2023-05-09T13:39:30.847Z,30.18
2023-05-09T13:40:30.893Z,30.15
2023-05-09T13:41:30.960Z,30.14
2023-05-09T13:42:31.980Z,30.16
2023-05-09T13:43:32.057Z,30.20
2023-05-09T13:44:31.092Z,30.20
2023-05-09T13:45:32.155Z,30.18
2023-05-09T13:46:32.347Z,30.18
2023-05-09T13:47:32.299Z,30.19
2023-05-09T13:48:32.340Z,30.20
2023-05-09T13:49:31.340Z,30.22
2023-05-09T13:50:31.512Z,30.21
2023-05-09T13:51:31.442Z,30.23
2023-05-09T13:52:32.476Z,30.21
2023-05-09T13:53:31.524Z,30.22
2023-05-09T13:54:32.581Z,30.26
2023-05-09T13:55:32.626Z,30.28
2023-05-09T13:56:32.664Z,30.30
2023-05-09T13:57:31.732Z,30.32
2023-05-09T13:58:31.680Z,30.35
2023-05-09T13:59:32.748Z,30.37
2023-05-09T14:00:31.795Z,30.37
2023-05-09T14:01:31.905Z,30.40
2023-05-09T14:02:32.937Z,30.44
2023-05-09T14:03:31.996Z,30.50
2023-05-09T14:04:32.869Z,30.52
2023-05-09T14:05:32.957Z,30.55
2023-05-09T14:06:33.099Z,30.57
2023-05-09T14:07:31.997Z,30.63
2023-05-09T14:08:32.040Z,30.68
2023-05-09T14:09:33.080Z,30.70
2023-05-09T14:10:32.104Z,30.72
2023-05-09T14:11:32.145Z,30.76
2023-05-09T14:12:32.137Z,30.81
2023-05-09T14:13:32.245Z,30.82
2023-05-09T14:14:33.144Z,30.82
2023-05-09T14:15:32.181Z,30.85
2023-05-09T14:16:33.332Z,30.91
2023-05-09T14:17:32.255Z,30.92
2023-05-09T14:18:33.296Z,30.92
2023-05-09T14:19:33.349Z,30.96
2023-05-09T14:20:36.448Z,30.98
2023-05-09T14:21:32.434Z,31.01
2023-05-09T14:22:32.544Z,31.05
2023-05-09T14:23:32.393Z,31.11
2023-05-09T14:24:32.393Z,31.13
2023-05-09T14:25:33.369Z,31.16
2023-05-09T14:26:32.358Z,31.22
2023-05-09T14:27:32.351Z,31.23
2023-05-09T14:28:32.353Z,31.25
2023-05-09T14:29:32.343Z,31.29
2023-05-09T14:30:33.345Z,31.33
2023-05-09T14:31:33.404Z,31.36
2023-05-09T14:32:33.334Z,31.39
2023-05-09T14:33:33.325Z,31.44
2023-05-09T14:34:33.318Z,31.48
2023-05-09T14:35:33.369Z,31.53
2023-05-09T14:36:33.294Z,31.57
2023-05-09T14:37:32.339Z,31.61
2023-05-09T14:38:32.397Z,31.67
2023-05-09T14:39:33.282Z,31.71
2023-05-09T14:40:33.287Z,31.77
2023-05-09T14:41:32.264Z,31.84
2023-05-09T14:42:33.308Z,31.93
2023-05-09T14:43:33.248Z,31.97
2023-05-09T14:44:33.245Z,32.04
2023-05-09T14:45:33.251Z,32.11
2023-05-09T14:46:33.280Z,32.23
2023-05-09T14:47:32.268Z,32.38
2023-05-09T14:48:32.238Z,32.47
2023-05-09T14:49:32.213Z,32.56
2023-05-09T14:50:32.205Z,32.59
2023-05-09T14:51:32.218Z,32.66
2023-05-09T14:52:33.195Z,32.69
2023-05-09T14:53:32.188Z,32.65
2023-05-09T14:54:32.323Z,32.69
2023-05-09T14:55:33.218Z,32.83
2023-05-09T14:56:33.290Z,32.95
2023-05-09T14:57:32.249Z,33.12
2023-05-09T14:58:32.253Z,33.29
2023-05-09T14:59:35.472Z,33.35
2023-05-09T15:00:32.249Z,33.40
2023-05-09T15:01:32.340Z,33.44
2023-05-09T15:02:32.268Z,33.52
2023-05-09T15:03:32.494Z,33.58
2023-05-09T15:04:33.268Z,33.53
2023-05-09T15:05:33.213Z,33.01
2023-05-09T15:06:33.250Z,32.85
2023-05-09T15:07:32.197Z,32.71
2023-05-09T15:08:33.190Z,32.73
2023-05-09T15:09:32.190Z,32.22
2023-05-09T15:10:33.333Z,31.80
2023-05-09T15:11:46.159Z,31.59
2023-05-09T15:12:33.169Z,31.98
2023-05-09T15:13:33.302Z,32.03
2023-05-09T15:14:33.172Z,32.15
2023-05-09T15:15:33.152Z,32.71
2023-05-09T15:16:33.230Z,33.39
2023-05-09T15:17:33.149Z,33.73
2023-05-09T15:18:33.141Z,34.11
2023-05-09T15:19:33.135Z,34.33
2023-05-09T15:20:33.125Z,33.02
2023-05-09T15:21:33.109Z,33.15
2023-05-09T15:22:33.134Z,33.71
2023-05-09T15:23:33.164Z,33.51
2023-05-09T15:24:33.099Z,34.25
2023-05-09T15:25:33.080Z,34.65
2023-05-09T15:26:33.221Z,34.86
2023-05-09T15:27:32.077Z,35.05
2023-05-09T15:28:33.080Z,35.00
2023-05-09T15:29:32.056Z,34.89
